createdAt,value
2019-04-13T00:01:13.738Z,5.60
2019-04-13T00:03:42.204Z,5.60
2019-04-13T00:06:28.608Z,5.60
2019-04-13T00:08:57.063Z,5.50
2019-04-13T00:11:36.032Z,5.50
2019-04-13T00:14:04.560Z,5.50
2019-04-13T00:16:32.973Z,5.40
2019-04-13T00:19:01.432Z,5.50
2019-04-13T00:21:29.924Z,5.40
2019-04-13T00:23:58.365Z,5.40
2019-04-13T00:26:26.793Z,5.50
2019-04-13T00:28:55.242Z,5.50
2019-04-13T00:31:26.339Z,5.50
2019-04-13T00:33:54.766Z,5.40
2019-04-13T00:36:23.286Z,5.40
2019-04-13T00:38:51.726Z,5.40
2019-04-13T00:41:20.158Z,5.30
2019-04-13T00:43:48.593Z,5.30
2019-04-13T00:46:17.062Z,5.30
2019-04-13T00:48:45.478Z,5.30
2019-04-13T00:51:13.915Z,5.10
2019-04-13T00:53:42.372Z,5.10
2019-04-13T00:56:10.794Z,5.10
2019-04-13T00:58:39.215Z,5.20
2019-04-13T01:01:07.705Z,5.30
2019-04-13T01:03:36.149Z,5.30
2019-04-13T01:06:11.322Z,5.40
2019-04-13T01:08:39.766Z,5.30
2019-04-13T01:11:08.220Z,5.30
2019-04-13T01:13:36.666Z,5.20
2019-04-13T01:16:05.107Z,5.30
2019-04-13T01:18:33.610Z,5.40
2019-04-13T01:21:02.039Z,5.40
2019-04-13T01:23:30.748Z,5.10
2019-04-13T01:25:59.175Z,5.20
2019-04-13T01:28:27.653Z,5.10
2019-04-13T01:30:56.132Z,5.10
2019-04-13T01:33:24.546Z,5.10
2019-04-13T01:35:52.982Z,5.20
2019-04-13T01:38:21.451Z,5.20
2019-04-13T01:40:49.881Z,5.30
2019-04-13T01:43:18.381Z,5.40
2019-04-13T01:45:46.874Z,5.20
2019-04-13T01:48:15.343Z,5.20
2019-04-13T01:50:44.177Z,4.90
2019-04-13T01:53:12.586Z,5.00
2019-04-13T01:55:41.043Z,5.10
2019-04-13T01:58:09.478Z,5.20
2019-04-13T02:00:48.771Z,4.90
2019-04-13T02:03:17.236Z,5.00
2019-04-13T02:05:47.306Z,5.10
2019-04-13T02:08:20.334Z,5.00
2019-04-13T02:10:50.427Z,5.20
2019-04-13T02:13:18.859Z,5.20
2019-04-13T02:15:47.313Z,5.20
2019-04-13T02:18:15.749Z,5.20
2019-04-13T02:20:44.202Z,5.10
2019-04-13T02:23:12.701Z,5.10
2019-04-13T02:25:41.128Z,5.10
2019-04-13T02:28:09.842Z,5.00
2019-04-13T02:30:38.292Z,5.00
2019-04-13T02:33:06.802Z,5.00
2019-04-13T02:35:36.785Z,5.00
2019-04-13T02:38:05.530Z,5.00
2019-04-13T02:40:33.983Z,5.10
2019-04-13T02:43:02.427Z,5.10
2019-04-13T02:45:30.879Z,5.00
2019-04-13T02:47:59.292Z,5.10
2019-04-13T02:50:27.725Z,5.10
2019-04-13T02:52:56.151Z,5.10
2019-04-13T02:55:24.632Z,5.10
2019-04-13T02:57:53.077Z,4.90
2019-04-13T03:00:21.510Z,5.00
2019-04-13T03:02:49.922Z,5.00
2019-04-13T03:05:18.387Z,5.10
2019-04-13T03:07:46.803Z,5.00
2019-04-13T03:10:15.493Z,5.10
2019-04-13T03:12:43.955Z,5.00
2019-04-13T03:15:12.679Z,4.90
2019-04-13T03:17:42.912Z,5.00
2019-04-13T03:20:28.187Z,5.00
2019-04-13T03:22:56.601Z,4.90
2019-04-13T03:25:25.308Z,4.90
2019-04-13T03:27:53.756Z,5.00
2019-04-13T03:30:23.913Z,4.90
2019-04-13T03:32:52.327Z,4.80
2019-04-13T03:35:20.794Z,4.80
2019-04-13T03:37:49.284Z,4.80
2019-04-13T03:40:17.751Z,4.90
2019-04-13T03:42:46.186Z,5.00
2019-04-13T03:45:14.727Z,4.90
2019-04-13T03:47:43.174Z,4.90
2019-04-13T03:50:12.387Z,4.90
2019-04-13T03:52:40.822Z,4.90
2019-04-13T03:55:09.399Z,4.80
2019-04-13T03:57:37.848Z,4.90
2019-04-13T04:00:07.072Z,4.80
2019-04-13T04:02:35.524Z,4.90
2019-04-13T04:05:05.486Z,4.80
2019-04-13T04:07:33.958Z,4.90
2019-04-13T04:10:02.545Z,4.70
2019-04-13T04:12:31.006Z,4.70
2019-04-13T04:14:59.435Z,4.70
2019-04-13T04:17:27.937Z,4.60
2019-04-13T04:19:56.389Z,4.70
2019-04-13T04:22:24.835Z,4.80
2019-04-13T04:24:53.262Z,4.80
2019-04-13T04:27:21.709Z,4.70
2019-04-13T04:29:50.145Z,4.70
2019-04-13T04:32:18.689Z,4.40
2019-04-13T04:34:47.143Z,4.50
2019-04-13T04:37:15.606Z,4.50
2019-04-13T04:39:44.430Z,4.60
2019-04-13T04:42:12.866Z,4.70
2019-04-13T04:44:41.312Z,4.50
2019-04-13T04:47:09.725Z,4.60
2019-04-13T04:49:38.175Z,4.70
2019-04-13T04:52:06.617Z,4.60
2019-04-13T04:54:35.018Z,4.60
2019-04-13T04:57:03.466Z,4.60
2019-04-13T04:59:31.963Z,4.60
2019-04-13T05:02:00.488Z,4.60
2019-04-13T05:04:28.958Z,4.60
2019-04-13T05:06:57.408Z,4.60
2019-04-13T05:09:26.006Z,4.70
2019-04-13T05:11:54.441Z,4.70
2019-04-13T05:14:22.878Z,4.60
2019-04-13T05:16:51.373Z,4.60
2019-04-13T05:19:19.827Z,4.60
2019-04-13T05:21:48.262Z,4.60
2019-04-13T05:24:16.695Z,4.60
2019-04-13T05:26:45.112Z,4.50
2019-04-13T05:29:13.540Z,4.40
2019-04-13T05:31:41.968Z,4.50
2019-04-13T05:34:16.395Z,4.50
2019-04-13T05:36:47.917Z,4.20
2019-04-13T05:39:15.035Z,4.20
2019-04-13T05:41:43.459Z,4.40
2019-04-13T05:44:11.887Z,4.60
2019-04-13T05:46:40.316Z,4.40
2019-04-13T05:49:08.751Z,4.30
2019-04-13T05:51:37.179Z,4.20
2019-04-13T05:54:05.601Z,4.40
2019-04-13T05:56:34.043Z,4.20
2019-04-13T05:59:03.551Z,4.50
2019-04-13T06:01:45.010Z,4.40
2019-04-13T06:04:13.455Z,4.20
2019-04-13T06:06:41.902Z,4.40
2019-04-13T06:09:12.709Z,4.40
2019-04-13T06:11:41.383Z,4.40
2019-04-13T06:14:09.991Z,4.00
2019-04-13T06:16:40.303Z,4.40
2019-04-13T06:19:08.655Z,4.40
2019-04-13T06:21:37.338Z,4.30
2019-04-13T06:24:07.234Z,4.40
2019-04-13T06:26:35.682Z,4.40
2019-04-13T06:29:05.043Z,4.40
2019-04-13T06:31:51.482Z,4.50
2019-04-13T06:34:38.796Z,4.30
2019-04-13T06:37:12.389Z,4.50
2019-04-13T06:39:37.434Z,4.60
2019-04-13T06:42:05.915Z,4.60
2019-04-13T06:44:36.330Z,4.70
2019-04-13T06:47:04.710Z,4.60
2019-04-13T06:49:33.145Z,4.70
2019-04-13T06:52:01.676Z,4.60
2019-04-13T06:54:31.740Z,4.60
2019-04-13T06:57:00.187Z,4.60
2019-04-13T06:59:28.629Z,4.40
2019-04-13T07:01:57.057Z,4.60
2019-04-13T07:04:25.490Z,4.70
2019-04-13T07:06:54.411Z,4.90
2019-04-13T07:09:26.262Z,4.90
2019-04-13T07:11:57.622Z,4.80
2019-04-13T07:14:26.137Z,4.80
2019-04-13T07:16:56.201Z,4.90
2019-04-13T07:19:24.720Z,4.90
2019-04-13T07:21:53.171Z,4.90
2019-04-13T07:24:21.596Z,4.80
2019-04-13T07:26:50.025Z,5.10
2019-04-13T07:29:18.471Z,5.10
2019-04-13T07:31:49.529Z,5.10
2019-04-13T07:34:18.157Z,5.10
2019-04-13T07:36:46.639Z,5.00
2019-04-13T07:39:17.283Z,5.10
2019-04-13T07:41:45.350Z,5.10
2019-04-13T07:44:15.464Z,5.20
2019-04-13T07:47:01.653Z,5.30
2019-04-13T07:49:49.857Z,5.20
2019-04-13T07:52:19.922Z,5.30
2019-04-13T07:54:48.379Z,5.20
2019-04-13T07:57:17.091Z,5.20
2019-04-13T07:59:45.553Z,5.30
2019-04-13T08:02:15.178Z,5.40
2019-04-13T08:04:43.667Z,5.40
2019-04-13T08:07:12.100Z,5.50
2019-04-13T08:09:41.111Z,5.40
2019-04-13T08:12:09.541Z,5.40
2019-04-13T08:14:38.002Z,5.50
2019-04-13T08:17:08.183Z,5.30
2019-04-13T08:19:38.377Z,5.50
2019-04-13T08:22:10.905Z,5.60
2019-04-13T08:24:39.395Z,5.60
2019-04-13T08:27:07.912Z,5.60
2019-04-13T08:29:36.359Z,5.60
2019-04-13T08:32:04.871Z,5.80
2019-04-13T08:34:33.298Z,5.60
2019-04-13T08:37:03.730Z,5.70
2019-04-13T08:39:32.290Z,5.80
2019-04-13T08:42:00.824Z,6.00
2019-04-13T08:44:29.242Z,6.10
2019-04-13T08:46:57.719Z,6.00
2019-04-13T08:49:26.181Z,6.10
2019-04-13T08:51:54.627Z,6.10
2019-04-13T08:54:23.043Z,6.20
2019-04-13T08:56:51.482Z,6.20
2019-04-13T08:59:20.565Z,6.10
2019-04-13T09:01:49.071Z,6.20
2019-04-13T09:04:23.379Z,6.20
2019-04-13T09:06:51.912Z,6.00
2019-04-13T09:09:20.509Z,6.10
2019-04-13T09:11:49.455Z,6.00
2019-04-13T09:14:18.108Z,5.70
2019-04-13T09:16:47.384Z,6.00
2019-04-13T09:19:38.014Z,6.10
2019-04-13T09:22:06.903Z,6.10
2019-04-13T09:24:35.526Z,6.20
2019-04-13T09:27:07.226Z,6.20
2019-04-13T09:29:34.351Z,6.30
2019-04-13T09:32:02.944Z,6.30
2019-04-13T09:34:34.663Z,6.30
2019-04-13T09:37:01.526Z,6.40
2019-04-13T09:39:29.943Z,6.60
2019-04-13T09:41:58.393Z,6.70
2019-04-13T09:44:31.166Z,6.70
2019-04-13T09:46:59.585Z,6.70
2019-04-13T09:49:28.027Z,6.80
2019-04-13T09:51:59.866Z,6.90
2019-04-13T09:54:26.628Z,6.70
2019-04-13T09:56:55.165Z,6.80
2019-04-13T09:59:26.023Z,6.90
2019-04-13T10:01:54.725Z,6.90
2019-04-13T10:04:23.215Z,6.80
2019-04-13T10:06:51.704Z,6.80
2019-04-13T10:09:20.146Z,6.90
2019-04-13T10:12:06.882Z,6.70
2019-04-13T10:14:54.890Z,6.80
2019-04-13T10:17:55.503Z,6.90
2019-04-13T10:20:24.186Z,6.70
2019-04-13T10:22:53.587Z,6.70
2019-04-13T10:25:24.656Z,6.70
2019-04-13T10:27:53.281Z,6.70
2019-04-13T10:30:21.913Z,6.80
2019-04-13T10:32:50.361Z,6.80
2019-04-13T10:35:18.778Z,6.80
2019-04-13T10:37:47.238Z,6.80
2019-04-13T10:40:15.654Z,6.70
2019-04-13T10:43:16.477Z,6.90
2019-04-13T10:45:51.119Z,7.00
2019-04-13T10:48:37.453Z,6.50
2019-04-13T10:51:16.717Z,6.40
2019-04-13T10:53:45.152Z,6.40
2019-04-13T10:56:13.587Z,6.30
2019-04-13T10:58:42.034Z,6.40
2019-04-13T11:01:10.457Z,6.50
2019-04-13T11:03:38.887Z,6.60
2019-04-13T11:06:08.816Z,6.50
2019-04-13T11:08:37.534Z,6.60
2019-04-13T11:11:06.421Z,6.50
2019-04-13T11:13:34.884Z,6.70
2019-04-13T11:16:03.294Z,6.50
2019-04-13T11:18:31.795Z,6.50
2019-04-13T11:21:02.723Z,6.60
2019-04-13T11:23:36.435Z,6.50
2019-04-13T11:26:01.307Z,6.40
2019-04-13T11:28:29.817Z,6.30
2019-04-13T11:30:58.249Z,6.20
2019-04-13T11:33:26.682Z,6.30
2019-04-13T11:35:55.137Z,6.30
2019-04-13T11:38:23.611Z,6.20
2019-04-13T11:40:59.806Z,6.30
2019-04-13T11:43:46.158Z,6.20
2019-04-13T11:46:19.254Z,6.30
2019-04-13T11:49:04.705Z,6.40
2019-04-13T11:51:33.892Z,6.30
2019-04-13T11:54:03.975Z,6.30
2019-04-13T11:56:38.131Z,6.40
2019-04-13T11:59:06.822Z,6.50
2019-04-13T12:01:48.991Z,6.50
2019-04-13T12:04:19.074Z,6.40
2019-04-13T12:06:49.124Z,6.50
2019-04-13T12:09:21.690Z,6.60
2019-04-13T12:11:54.918Z,6.60
2019-04-13T12:14:26.495Z,6.60
2019-04-13T12:17:12.519Z,6.70
2019-04-13T12:19:42.618Z,6.60
2019-04-13T12:22:12.706Z,6.70
2019-04-13T12:24:41.152Z,6.80
2019-04-13T12:27:09.654Z,6.70
2019-04-13T12:29:39.193Z,6.70
2019-04-13T12:32:09.865Z,6.70
2019-04-13T12:34:38.352Z,6.70
2019-04-13T12:37:09.185Z,6.70
2019-04-13T12:39:37.075Z,6.70
2019-04-13T12:42:07.103Z,6.80
2019-04-13T12:44:38.110Z,7.00
2019-04-13T12:47:09.907Z,7.00
2019-04-13T12:49:37.955Z,7.40
2019-04-13T12:52:06.731Z,7.40
2019-04-13T12:54:37.281Z,7.30
2019-04-13T12:57:07.335Z,7.30
2019-04-13T12:59:37.143Z,7.20
2019-04-13T13:02:10.126Z,7.10
2019-04-13T13:04:43.116Z,7.30
2019-04-13T13:07:11.726Z,7.50
2019-04-13T13:09:42.449Z,7.70
2019-04-13T13:12:14.215Z,7.80
2019-04-13T13:14:40.711Z,7.60
2019-04-13T13:17:09.316Z,7.60
2019-04-13T13:19:38.006Z,7.30
2019-04-13T13:22:06.534Z,7.30
2019-04-13T13:24:34.978Z,7.30
2019-04-13T13:27:06.480Z,7.20
2019-04-13T13:29:33.851Z,7.00
2019-04-13T13:32:02.301Z,6.90
2019-04-13T13:34:30.738Z,6.70
2019-04-13T13:36:59.250Z,6.70
2019-04-13T13:39:27.801Z,6.90
2019-04-13T13:41:56.299Z,6.90
2019-04-13T13:44:25.025Z,6.90
2019-04-13T13:46:53.466Z,6.70
2019-04-13T13:49:21.913Z,6.70
2019-04-13T13:51:55.895Z,6.60
2019-04-13T13:54:20.528Z,6.50
2019-04-13T13:56:48.959Z,6.60
2019-04-13T13:59:17.404Z,6.50
2019-04-13T14:01:50.531Z,6.50
2019-04-13T14:04:18.949Z,6.60
2019-04-13T14:07:05.615Z,6.50
2019-04-13T14:09:34.036Z,6.50
2019-04-13T14:12:02.561Z,6.60
2019-04-13T14:14:31.106Z,6.40
2019-04-13T14:16:59.738Z,6.60
2019-04-13T14:19:30.357Z,6.30
2019-04-13T14:21:58.643Z,6.30
2019-04-13T14:24:27.326Z,6.30
2019-04-13T14:26:55.994Z,6.30
2019-04-13T14:29:24.594Z,6.30
2019-04-13T14:31:53.141Z,6.20
2019-04-13T14:34:21.558Z,6.20
2019-04-13T14:36:50.152Z,6.00
2019-04-13T14:39:18.980Z,6.20
2019-04-13T14:41:47.442Z,6.30
2019-04-13T14:44:17.263Z,6.20
2019-04-13T14:46:46.309Z,6.10
2019-04-13T14:49:14.939Z,6.10
2019-04-13T14:51:43.487Z,6.20
2019-04-13T14:54:11.992Z,6.20
2019-04-13T14:56:40.619Z,6.20
2019-04-13T14:59:09.278Z,6.30
2019-04-13T15:01:37.761Z,6.20
2019-04-13T15:04:06.404Z,6.20
2019-04-13T15:06:34.893Z,6.30
2019-04-13T15:09:05.003Z,6.20
2019-04-13T15:11:33.520Z,6.40
2019-04-13T15:14:02.165Z,6.30
2019-04-13T15:16:31.611Z,6.60
2019-04-13T15:19:25.466Z,6.40
2019-04-13T15:21:41.789Z,6.20
2019-04-13T15:24:13.562Z,6.40
2019-04-13T15:26:42.678Z,6.40
2019-04-13T15:29:16.401Z,6.40
2019-04-13T15:31:43.145Z,6.50
2019-04-13T15:34:11.807Z,6.50
2019-04-13T15:36:40.404Z,6.60
2019-04-13T15:39:14.083Z,6.50
2019-04-13T15:41:57.209Z,6.60
2019-04-13T15:44:22.337Z,6.60
2019-04-13T15:46:51.804Z,6.40
2019-04-13T15:49:20.425Z,6.50
2019-04-13T15:51:49.503Z,6.40
2019-04-13T15:54:18.688Z,6.30
2019-04-13T15:56:47.522Z,6.30
2019-04-13T15:59:18.182Z,6.30
2019-04-13T16:01:48.091Z,6.30
2019-04-13T16:04:16.962Z,6.40
2019-04-13T16:06:46.444Z,6.60
2019-04-13T16:09:16.787Z,6.70
2019-04-13T16:11:53.797Z,6.60
2019-04-13T16:14:18.130Z,6.60
2019-04-13T16:16:47.785Z,6.70
2019-04-13T16:19:16.454Z,6.50
2019-04-13T16:21:45.446Z,6.40
2019-04-13T16:24:13.999Z,6.50
2019-04-13T16:26:42.424Z,6.50
2019-04-13T16:29:29.419Z,6.50
2019-04-13T16:31:59.613Z,6.50
2019-04-13T16:34:44.637Z,6.40
2019-04-13T16:37:30.288Z,6.10
2019-04-13T16:39:59.879Z,6.10
2019-04-13T16:42:31.123Z,6.20
2019-04-13T16:45:02.887Z,6.00
2019-04-13T16:47:42.097Z,6.00
2019-04-13T16:50:30.279Z,5.90
2019-04-13T16:53:01.388Z,5.90
2019-04-13T16:55:35.230Z,5.90
2019-04-13T16:58:09.315Z,6.00
2019-04-13T17:00:50.196Z,6.20
2019-04-13T17:03:23.227Z,6.40
2019-04-13T17:05:54.371Z,6.20
2019-04-13T17:08:23.915Z,6.10
2019-04-13T17:10:52.534Z,6.00
2019-04-13T17:13:21.897Z,6.00
2019-04-13T17:15:50.484Z,5.90
2019-04-13T17:18:20.767Z,6.00
2019-04-13T17:20:53.645Z,6.00
2019-04-13T17:23:40.261Z,5.90
2019-04-13T17:26:36.027Z,5.90
2019-04-13T17:29:07.437Z,5.70
2019-04-13T17:31:55.413Z,5.70
2019-04-13T17:34:25.781Z,5.80
2019-04-13T17:36:56.372Z,5.80
2019-04-13T17:39:25.219Z,5.70
2019-04-13T17:42:13.159Z,5.70
2019-04-13T17:44:44.019Z,5.80
2019-04-13T17:47:30.961Z,5.80
2019-04-13T17:50:17.869Z,5.60
2019-04-13T17:53:03.588Z,5.50
2019-04-13T17:55:39.824Z,5.50
2019-04-13T17:58:27.554Z,5.60
2019-04-13T18:01:08.251Z,5.70
2019-04-13T18:03:53.604Z,5.50
2019-04-13T18:06:42.175Z,5.50
2019-04-13T18:09:16.466Z,5.40
2019-04-13T18:11:49.315Z,5.40
2019-04-13T18:14:22.433Z,5.40
2019-04-13T18:16:53.054Z,5.30
2019-04-13T18:19:21.823Z,5.20
2019-04-13T18:21:51.337Z,5.20
2019-04-13T18:24:20.001Z,5.10
2019-04-13T18:26:48.454Z,5.20
2019-04-13T18:29:17.404Z,5.20
2019-04-13T18:31:46.020Z,5.10
2019-04-13T18:34:14.511Z,5.00
2019-04-13T18:36:42.973Z,4.80
2019-04-13T18:39:11.426Z,4.90
2019-04-13T18:41:39.976Z,4.90
2019-04-13T18:44:09.533Z,5.20
2019-04-13T18:46:38.431Z,5.30
2019-04-13T18:49:07.525Z,5.20
2019-04-13T18:51:36.165Z,5.10
2019-04-13T18:54:05.121Z,4.80
2019-04-13T18:56:33.631Z,4.80
2019-04-13T18:59:02.320Z,4.80
2019-04-13T19:01:30.906Z,5.10
2019-04-13T19:03:59.359Z,5.40
2019-04-13T19:06:27.833Z,5.20
2019-04-13T19:08:56.339Z,5.20
2019-04-13T19:11:24.750Z,5.20
2019-04-13T19:13:53.190Z,5.10
2019-04-13T19:16:21.623Z,4.90
2019-04-13T19:18:50.052Z,4.80
2019-04-13T19:21:18.568Z,4.80
2019-04-13T19:23:47.017Z,4.80
2019-04-13T19:26:15.455Z,4.80
2019-04-13T19:28:43.930Z,4.90
2019-04-13T19:31:12.436Z,4.90
2019-04-13T19:33:40.876Z,4.90
2019-04-13T19:36:09.317Z,4.80
2019-04-13T19:38:37.819Z,4.80
2019-04-13T19:41:07.070Z,4.80
2019-04-13T19:43:35.546Z,4.80
2019-04-13T19:46:04.211Z,4.80
2019-04-13T19:48:32.671Z,4.70
2019-04-13T19:51:01.102Z,4.60
2019-04-13T19:53:47.599Z,4.40
2019-04-13T19:56:18.620Z,4.40
2019-04-13T19:58:47.088Z,4.40
2019-04-13T20:01:17.177Z,4.50
2019-04-13T20:03:45.589Z,4.50
2019-04-13T20:06:19.139Z,4.50
2019-04-13T20:08:44.177Z,4.70
2019-04-13T20:11:21.678Z,4.90
2019-04-13T20:13:57.137Z,4.90
2019-04-13T20:16:21.094Z,4.80
2019-04-13T20:18:49.719Z,4.90
2019-04-13T20:21:21.078Z,4.80
2019-04-13T20:23:49.528Z,4.60
2019-04-13T20:26:18.696Z,4.60
2019-04-13T20:28:48.279Z,4.60
2019-04-13T20:31:18.136Z,4.60
2019-04-13T20:33:46.746Z,4.50
2019-04-13T20:36:20.606Z,4.40
2019-04-13T20:38:45.468Z,4.60
2019-04-13T20:41:15.550Z,4.40
2019-04-13T20:43:53.735Z,4.30
2019-04-13T20:46:14.630Z,4.40
2019-04-13T20:48:44.490Z,4.40
2019-04-13T20:51:13.078Z,4.60
2019-04-13T20:53:41.548Z,4.50
2019-04-13T20:56:10.053Z,4.60
2019-04-13T20:58:38.467Z,4.50
2019-04-13T21:01:08.217Z,4.40
2019-04-13T21:03:38.009Z,4.40
2019-04-13T21:06:06.714Z,4.30
2019-04-13T21:08:35.259Z,4.20
2019-04-13T21:11:03.691Z,4.20
2019-04-13T21:13:32.119Z,4.20
2019-04-13T21:16:01.783Z,4.10
2019-04-13T21:18:30.479Z,4.10
2019-04-13T21:20:59.941Z,4.10
2019-04-13T21:23:29.820Z,4.10
2019-04-13T21:25:59.741Z,4.10
2019-04-13T21:28:29.679Z,4.10
2019-04-13T21:30:58.247Z,4.10
2019-04-13T21:33:27.848Z,4.00
2019-04-13T21:35:57.749Z,4.10
2019-04-13T21:38:27.686Z,4.10
2019-04-13T21:40:56.353Z,4.00
2019-04-13T21:43:25.820Z,4.10
2019-04-13T21:45:55.642Z,4.00
2019-04-13T21:48:24.281Z,4.10
2019-04-13T21:51:11.800Z,4.00
2019-04-13T21:53:46.303Z,4.00
2019-04-13T21:56:14.940Z,4.00
2019-04-13T21:58:44.706Z,3.90
2019-04-13T22:01:34.715Z,3.90
2019-04-13T22:04:04.757Z,3.90
2019-04-13T22:06:35.113Z,3.90
2019-04-13T22:09:06.701Z,3.90
2019-04-13T22:11:36.436Z,4.00
2019-04-13T22:14:07.992Z,3.80
2019-04-13T22:16:35.374Z,3.70
2019-04-13T22:19:04.928Z,3.70
2019-04-13T22:21:33.602Z,3.80
2019-04-13T22:24:02.879Z,3.70
2019-04-13T22:26:32.532Z,3.70
2019-04-13T22:29:02.894Z,3.70
2019-04-13T22:31:48.140Z,3.70
2019-04-13T22:34:35.769Z,3.70
2019-04-13T22:37:05.953Z,3.90
2019-04-13T22:39:37.798Z,4.10
2019-04-13T22:42:06.410Z,3.80
2019-04-13T22:44:44.487Z,3.80
2019-04-13T22:47:05.967Z,3.60
2019-04-13T22:49:36.317Z,3.60
2019-04-13T22:52:23.595Z,3.60
2019-04-13T22:55:10.372Z,3.60
2019-04-13T22:57:43.442Z,3.50
2019-04-13T23:00:17.241Z,3.50
2019-04-13T23:02:47.467Z,3.40
2019-04-13T23:05:15.979Z,3.40
2019-04-13T23:07:45.561Z,3.40
2019-04-13T23:10:14.562Z,3.30
2019-04-13T23:12:44.181Z,3.20
2019-04-13T23:15:20.739Z,3.30
2019-04-13T23:17:43.982Z,3.20
2019-04-13T23:20:14.648Z,3.20
2019-04-13T23:22:43.171Z,3.20
2019-04-13T23:25:13.829Z,3.10
2019-04-13T23:27:43.631Z,3.10
2019-04-13T23:30:13.678Z,3.00
2019-04-13T23:32:42.382Z,3.20
2019-04-13T23:35:11.107Z,3.20
2019-04-13T23:37:39.605Z,3.30
2019-04-13T23:40:09.317Z,3.30
2019-04-13T23:42:37.890Z,3.30
2019-04-13T23:45:17.153Z,3.30
2019-04-13T23:47:38.361Z,3.30
2019-04-13T23:50:09.008Z,3.30
2019-04-13T23:52:37.697Z,3.40
2019-04-13T23:55:07.728Z,3.30
2019-04-13T23:57:53.230Z,3.30
